Time;durP1;ratioP1;P1;durP2;ratioP2;P2;SDS_P1;SDS_P2;PMS_P1;PMS_P2;Temp;Humidity;BMP_temperature;BMP_pressure;BME280_temperature;BME280_humidity;BME280_pressure;Samples;Min_cycle;Max_cycle;Signal;HPM_P1;HPM_P2
2023/10/23 00:02:08;;;;;;;1.80;1.60;;;;;;;;;;5054113;28;20432;-79
2023/10/23 00:04:34;;;;;;;2.63;1.70;;;;;;;;;;5053155;28;20382;-79
2023/10/23 00:07:00;;;;;;;2.75;1.52;;;;;;;;;;5056899;28;20381;-79
2023/10/23 00:09:26;;;;;;;1.80;1.42;;;;;;;;;;5053722;28;20401;-79
2023/10/23 00:11:52;;;;;;;1.50;1.40;;;;;;;;;;5053438;28;20534;-79
2023/10/23 00:14:18;;;;;;;1.88;1.38;;;;;;;;;;5053639;28;20728;-79
2023/10/23 00:16:44;;;;;;;2.53;1.50;;;;;;;;;;5053245;28;20385;-79
2023/10/23 00:19:10;;;;;;;3.33;1.35;;;;;;;;;;5052419;28;20447;-79
2023/10/23 00:21:37;;;;;;;1.65;1.38;;;;;;;;;;5052919;28;20417;-79
2023/10/23 00:24:03;;;;;;;1.60;1.20;;;;;;;;;;5053276;28;20389;-79
2023/10/23 00:26:29;;;;;;;2.35;1.40;;;;;;;;;;5053036;28;20386;-79
2023/10/23 00:28:55;;;;;;;3.10;1.38;;;;;;;;;;5053227;28;20392;-79
2023/10/23 00:31:20;;;;;;;1.40;1.30;;;;;;;;;;5052749;28;20381;-79
2023/10/23 00:33:46;;;;;;;1.80;1.20;;;;;;;;;;5053065;28;20390;-79
2023/10/23 00:36:12;;;;;;;2.00;1.20;;;;;;;;;;5055140;28;20468;-79
2023/10/23 00:38:38;;;;;;;2.15;1.23;;;;;;;;;;5055974;28;20389;-80
2023/10/23 00:41:04;;;;;;;1.33;1.10;;;;;;;;;;5054901;28;20409;-80
2023/10/23 00:43:30;;;;;;;1.27;1.10;;;;;;;;;;5054180;28;20393;-79
2023/10/23 00:45:57;;;;;;;1.50;1.20;;;;;;;;;;5053489;28;20858;-79
2023/10/23 00:48:24;;;;;;;1.48;1.17;;;;;;;;;;5053479;28;20377;-80
2023/10/23 00:50:51;;;;;;;1.42;1.33;;;;;;;;;;5053075;28;20382;-79
2023/10/23 00:53:18;;;;;;;2.28;1.30;;;;;;;;;;5053488;28;20883;-79
2023/10/23 00:55:45;;;;;;;1.90;1.48;;;;;;;;;;5053049;28;20382;-79
2023/10/23 00:58:11;;;;;;;1.52;1.30;;;;;;;;;;5053527;28;20390;-79
2023/10/23 01:00:37;;;;;;;1.30;1.15;;;;;;;;;;5053152;28;20445;-79
2023/10/23 01:03:04;;;;;;;1.45;1.20;;;;;;;;;;5053409;28;20459;-79
2023/10/23 01:05:30;;;;;;;1.60;1.33;;;;;;;;;;5053185;28;20377;-79
2023/10/23 01:07:56;;;;;;;2.67;1.27;;;;;;;;;;5053266;28;20916;-79
2023/10/23 01:10:22;;;;;;;1.90;1.33;;;;;;;;;;5055394;28;20396;-79
2023/10/23 01:12:48;;;;;;;1.75;1.30;;;;;;;;;;5056742;28;20388;-79
2023/10/23 01:15:14;;;;;;;1.42;1.30;;;;;;;;;;5056815;28;20726;-79
2023/10/23 01:17:40;;;;;;;1.83;1.50;;;;;;;;;;5056523;28;20914;-79
2023/10/23 01:20:09;;;;;;;2.20;1.33;;;;;;;;;;5056361;28;20421;-79
2023/10/23 01:22:35;;;;;;;1.58;1.10;;;;;;;;;;5056439;28;20798;-79
2023/10/23 01:25:01;;;;;;;1.30;1.20;;;;;;;;;;5056221;28;20443;-79
2023/10/23 01:27:27;;;;;;;1.80;1.40;;;;;;;;;;5056804;28;20735;-79
2023/10/23 01:29:53;;;;;;;2.47;1.70;;;;;;;;;;5056085;28;20409;-79
2023/10/23 01:32:19;;;;;;;2.22;1.45;;;;;;;;;;5056585;28;20397;-79
2023/10/23 01:34:46;;;;;;;1.48;1.20;;;;;;;;;;5056222;28;20401;-79
2023/10/23 01:37:12;;;;;;;2.00;1.08;;;;;;;;;;5056520;28;20905;-79
2023/10/23 01:39:38;;;;;;;1.43;1.30;;;;;;;;;;5056905;28;20443;-79
2023/10/23 01:42:04;;;;;;;2.70;1.20;;;;;;;;;;5056592;28;20878;-79
2023/10/23 01:44:30;;;;;;;1.20;1.10;;;;;;;;;;5056421;28;20388;-79
2023/10/23 01:46:56;;;;;;;1.63;1.25;;;;;;;;;;5055413;28;20394;-79
2023/10/23 01:49:22;;;;;;;2.53;1.15;;;;;;;;;;5056159;28;20439;-79
2023/10/23 01:51:48;;;;;;;1.40;1.20;;;;;;;;;;5055330;28;20380;-79
2023/10/23 01:54:14;;;;;;;1.85;1.30;;;;;;;;;;5039794;28;20475;-79
2023/10/23 01:56:40;;;;;;;1.55;1.15;;;;;;;;;;5047748;28;20420;-79
2023/10/23 01:59:06;;;;;;;1.60;1.23;;;;;;;;;;5054178;28;20389;-79
2023/10/23 02:01:33;;;;;;;2.00;1.20;;;;;;;;;;5054871;28;20821;-79
2023/10/23 02:03:59;;;;;;;2.77;1.37;;;;;;;;;;5055205;28;20465;-79
2023/10/23 02:06:25;;;;;;;1.60;1.17;;;;;;;;;;5055196;28;20386;-79
2023/10/23 02:08:51;;;;;;;2.53;1.35;;;;;;;;;;5055877;28;20389;-79
2023/10/23 02:11:17;;;;;;;1.85;1.42;;;;;;;;;;5055097;28;20385;-79
2023/10/23 02:13:43;;;;;;;1.27;1.17;;;;;;;;;;5055867;28;20381;-79
2023/10/23 02:16:09;;;;;;;1.53;1.23;;;;;;;;;;5054976;28;20455;-79
2023/10/23 02:18:35;;;;;;;1.33;1.20;;;;;;;;;;5054268;28;20373;-79
2023/10/23 02:21:01;;;;;;;1.38;1.20;;;;;;;;;;5054444;28;20433;-79
2023/10/23 02:23:27;;;;;;;1.93;1.10;;;;;;;;;;5055082;28;20786;-79
2023/10/23 02:25:54;;;;;;;1.58;1.30;;;;;;;;;;5054923;28;20385;-79
2023/10/23 02:28:20;;;;;;;1.30;1.20;;;;;;;;;;5054920;28;20447;-79
2023/10/23 02:30:46;;;;;;;1.65;1.30;;;;;;;;;;5055296;28;20754;-79
2023/10/23 02:33:12;;;;;;;1.48;1.30;;;;;;;;;;5055155;28;20395;-79
2023/10/23 02:35:38;;;;;;;1.67;1.27;;;;;;;;;;5055205;28;20401;-79
2023/10/23 02:38:04;;;;;;;2.28;1.10;;;;;;;;;;5055103;28;20839;-79
2023/10/23 02:40:30;;;;;;;1.63;1.35;;;;;;;;;;5054800;28;20385;-79
2023/10/23 02:42:56;;;;;;;1.92;1.23;;;;;;;;;;5055206;28;20409;-79
2023/10/23 02:45:22;;;;;;;1.63;1.20;;;;;;;;;;5054171;28;20758;-79
2023/10/23 02:47:48;;;;;;;1.33;1.23;;;;;;;;;;5054536;28;20424;-79
2023/10/23 02:50:14;;;;;;;1.85;1.30;;;;;;;;;;5054704;28;20393;-79
2023/10/23 02:52:40;;;;;;;2.00;1.20;;;;;;;;;;5054848;28;20849;-79
2023/10/23 02:55:06;;;;;;;2.20;1.50;;;;;;;;;;5054698;28;20824;-79
2023/10/23 02:57:32;;;;;;;1.60;1.50;;;;;;;;;;5054359;28;20439;-79
2023/10/23 02:59:59;;;;;;;1.70;1.30;;;;;;;;;;5054798;28;20832;-79
2023/10/23 03:02:25;;;;;;;1.70;1.27;;;;;;;;;;5055199;28;20771;-79
2023/10/23 03:04:51;;;;;;;1.55;1.38;;;;;;;;;;5054729;28;21082;-79
2023/10/23 03:07:17;;;;;;;1.90;1.48;;;;;;;;;;5054600;28;20385;-79
2023/10/23 03:09:43;;;;;;;1.92;1.70;;;;;;;;;;5054943;28;20527;-79
2023/10/23 03:12:09;;;;;;;1.83;1.40;;;;;;;;;;5054596;28;20393;-79
2023/10/23 03:14:35;;;;;;;2.38;1.40;;;;;;;;;;5054305;28;20381;-79
2023/10/23 03:17:01;;;;;;;1.85;1.40;;;;;;;;;;5054550;28;20759;-79
2023/10/23 03:19:27;;;;;;;2.33;1.45;;;;;;;;;;5054493;28;20395;-79
2023/10/23 03:21:53;;;;;;;1.50;1.38;;;;;;;;;;5054629;28;20421;-79
2023/10/23 03:24:19;;;;;;;1.60;1.40;;;;;;;;;;5054411;28;20433;-79
2023/10/23 03:26:45;;;;;;;2.10;1.60;;;;;;;;;;5054386;28;20385;-79
2023/10/23 03:29:11;;;;;;;2.15;1.58;;;;;;;;;;5036646;28;20424;-79
2023/10/23 03:31:37;;;;;;;2.00;1.90;;;;;;;;;;5054026;28;20834;-79
2023/10/23 03:34:03;;;;;;;1.75;1.63;;;;;;;;;;5054518;28;20438;-79
2023/10/23 03:36:29;;;;;;;2.25;2.05;;;;;;;;;;5054855;28;20394;-79
2023/10/23 03:38:55;;;;;;;2.20;2.00;;;;;;;;;;5054887;28;20830;-79
2023/10/23 03:41:21;;;;;;;2.00;1.80;;;;;;;;;;5054585;28;20420;-79
2023/10/23 03:43:47;;;;;;;2.40;2.05;;;;;;;;;;5057200;28;20799;-79
2023/10/23 03:46:13;;;;;;;2.25;1.90;;;;;;;;;;5056903;28;20407;-80
2023/10/23 03:48:39;;;;;;;2.40;1.73;;;;;;;;;;5056348;28;20397;-79
2023/10/23 03:51:05;;;;;;;2.30;1.75;;;;;;;;;;5054336;28;20393;-79
2023/10/23 03:53:31;;;;;;;1.77;1.60;;;;;;;;;;5054050;28;20467;-79
2023/10/23 03:55:58;;;;;;;1.92;1.35;;;;;;;;;;5053831;28;20382;-79
2023/10/23 03:58:24;;;;;;;2.08;1.50;;;;;;;;;;5054630;28;20389;-79
2023/10/23 04:00:53;;;;;;;1.95;1.58;;;;;;;;;;5053490;28;20428;-79
2023/10/23 04:03:19;;;;;;;1.55;1.45;;;;;;;;;;5053853;28;20412;-79
2023/10/23 04:05:45;;;;;;;2.58;1.60;;;;;;;;;;5053885;28;20389;-79
2023/10/23 04:08:11;;;;;;;1.55;1.23;;;;;;;;;;5054002;28;20393;-79
2023/10/23 04:10:37;;;;;;;2.60;1.42;;;;;;;;;;5054220;28;20377;-79
2023/10/23 04:13:03;;;;;;;1.43;1.30;;;;;;;;;;5054018;28;20472;-79
2023/10/23 04:15:29;;;;;;;1.90;1.48;;;;;;;;;;5053332;28;20735;-79
2023/10/23 04:17:55;;;;;;;2.10;1.80;;;;;;;;;;5053542;28;20934;-79
2023/10/23 04:20:21;;;;;;;2.17;1.58;;;;;;;;;;5053087;28;20468;-79
2023/10/23 04:22:47;;;;;;;1.88;1.70;;;;;;;;;;5053341;28;20393;-79
2023/10/23 04:25:13;;;;;;;1.42;1.33;;;;;;;;;;5053545;28;20386;-79
2023/10/23 04:27:39;;;;;;;2.58;1.30;;;;;;;;;;5053326;28;20464;-79
2023/10/23 04:30:06;;;;;;;1.58;1.48;;;;;;;;;;5053269;28;20407;-79
2023/10/23 04:32:32;;;;;;;3.47;1.95;;;;;;;;;;5054393;28;20445;-80
2023/10/23 04:34:59;;;;;;;1.40;1.30;;;;;;;;;;5053692;28;20509;-79
2023/10/23 04:37:25;;;;;;;1.60;1.50;;;;;;;;;;5054536;28;20382;-79
2023/10/23 04:39:51;;;;;;;2.22;1.38;;;;;;;;;;5053555;28;20401;-79
2023/10/23 04:42:17;;;;;;;1.63;1.50;;;;;;;;;;5053435;28;20447;-79
2023/10/23 04:44:43;;;;;;;2.90;1.70;;;;;;;;;;5053292;28;20389;-79
2023/10/23 04:47:09;;;;;;;2.45;1.73;;;;;;;;;;5053768;28;20378;-79
2023/10/23 04:49:35;;;;;;;2.10;1.70;;;;;;;;;;5053854;28;20377;-79
2023/10/23 04:52:01;;;;;;;1.90;1.70;;;;;;;;;;5053410;28;20404;-80
2023/10/23 04:54:27;;;;;;;2.28;1.60;;;;;;;;;;5053776;28;20397;-79
2023/10/23 04:56:52;;;;;;;2.13;1.63;;;;;;;;;;5052519;28;20862;-79
2023/10/23 04:59:18;;;;;;;2.28;2.08;;;;;;;;;;5053169;28;20385;-79
2023/10/23 05:01:44;;;;;;;3.25;2.38;;;;;;;;;;5054058;28;20417;-79
2023/10/23 05:04:10;;;;;;;2.57;2.20;;;;;;;;;;5053255;28;20869;-79
2023/10/23 05:06:36;;;;;;;2.25;1.88;;;;;;;;;;5053195;28;20468;-79
2023/10/23 05:09:04;;;;;;;2.00;1.80;;;;;;;;;;5053100;28;20395;-79
2023/10/23 05:11:31;;;;;;;1.52;1.42;;;;;;;;;;5052755;28;20467;-79
2023/10/23 05:13:57;;;;;;;1.97;1.60;;;;;;;;;;5046460;28;20466;-79
2023/10/23 05:16:23;;;;;;;2.00;1.58;;;;;;;;;;5050512;28;20438;-79
2023/10/23 05:18:50;;;;;;;1.70;1.60;;;;;;;;;;5052626;28;20413;-79
2023/10/23 05:21:16;;;;;;;2.70;1.63;;;;;;;;;;5051463;28;20417;-79
2023/10/23 05:23:42;;;;;;;2.35;1.80;;;;;;;;;;5047261;28;20379;-79
2023/10/23 05:26:10;;;;;;;2.30;2.05;;;;;;;;;;5036860;28;20387;-79
2023/10/23 05:28:39;;;;;;;2.53;2.20;;;;;;;;;;5052774;28;20385;-79
2023/10/23 05:31:06;;;;;;;2.17;1.95;;;;;;;;;;5043667;28;20454;-79
2023/10/23 05:33:33;;;;;;;2.97;2.10;;;;;;;;;;5051430;28;20397;-79
2023/10/23 05:36:05;;;;;;;3.65;2.10;;;;;;;;;;5043593;28;20474;-79
2023/10/23 05:38:31;;;;;;;2.60;1.80;;;;;;;;;;5050544;28;20377;-79
2023/10/23 05:40:58;;;;;;;2.10;1.80;;;;;;;;;;5035050;28;20568;-79
2023/10/23 05:43:27;;;;;;;2.88;1.73;;;;;;;;;;5052922;28;20385;-79
2023/10/23 05:45:56;;;;;;;1.85;1.30;;;;;;;;;;5053160;28;20381;-79
2023/10/23 05:48:23;;;;;;;2.78;1.90;;;;;;;;;;5054164;28;20396;-79
2023/10/23 05:51:05;;;;;;;1.80;1.60;;;;;;;;;;5052450;28;20397;-80
2023/10/23 05:53:31;;;;;;;1.58;1.48;;;;;;;;;;5047224;28;20378;-79
2023/10/23 05:56:04;;;;;;;2.80;1.70;;;;;;;;;;5048307;28;20424;-79
2023/10/23 05:58:30;;;;;;;1.98;1.58;;;;;;;;;;5045998;28;20373;-79
2023/10/23 06:00:57;;;;;;;2.45;1.50;;;;;;;;;;5040398;28;20450;-79
2023/10/23 06:03:23;;;;;;;3.58;1.50;;;;;;;;;;5055909;28;20489;-80
2023/10/23 06:05:49;;;;;;;2.50;1.85;;;;;;;;;;5055865;28;20413;-80
2023/10/23 06:08:15;;;;;;;2.58;2.20;;;;;;;;;;5055815;28;20851;-80
2023/10/23 06:10:44;;;;;;;1.98;1.55;;;;;;;;;;5055580;28;20400;-80
2023/10/23 06:13:11;;;;;;;2.50;1.50;;;;;;;;;;5052201;28;20464;-80
2023/10/23 06:15:37;;;;;;;2.83;1.60;;;;;;;;;;5052794;28;20482;-81
2023/10/23 06:18:04;;;;;;;1.50;1.30;;;;;;;;;;5041793;28;20417;-80
2023/10/23 06:20:31;;;;;;;2.75;1.50;;;;;;;;;;5055582;28;20424;-80
2023/10/23 06:22:57;;;;;;;1.52;1.38;;;;;;;;;;5055595;28;20389;-80
2023/10/23 06:25:23;;;;;;;2.08;1.27;;;;;;;;;;5055712;28;20476;-80
2023/10/23 06:27:49;;;;;;;1.65;1.30;;;;;;;;;;5055829;28;20385;-80
2023/10/23 06:30:15;;;;;;;1.88;1.60;;;;;;;;;;5055683;28;20381;-79
2023/10/23 06:32:41;;;;;;;3.30;1.77;;;;;;;;;;5055240;28;20701;-79
2023/10/23 06:35:07;;;;;;;3.40;1.75;;;;;;;;;;5055048;28;20485;-79
2023/10/23 06:37:33;;;;;;;2.50;1.67;;;;;;;;;;5055288;28;20789;-80
2023/10/23 06:39:59;;;;;;;1.98;1.52;;;;;;;;;;5053877;28;20419;-79
2023/10/23 06:42:26;;;;;;;3.20;2.90;;;;;;;;;;5055066;28;20545;-80
2023/10/23 06:44:52;;;;;;;3.00;1.88;;;;;;;;;;5055031;28;20382;-79
2023/10/23 06:47:18;;;;;;;2.65;1.60;;;;;;;;;;5055210;28;20489;-79
2023/10/23 06:49:44;;;;;;;2.97;1.80;;;;;;;;;;5055006;28;20397;-80
2023/10/23 06:52:10;;;;;;;2.28;1.48;;;;;;;;;;5058243;28;20478;-80
2023/10/23 06:54:36;;;;;;;2.43;1.77;;;;;;;;;;5056095;28;20385;-80
2023/10/23 06:57:08;;;;;;;2.55;1.45;;;;;;;;;;5053514;28;20735;-79
2023/10/23 06:59:35;;;;;;;2.75;1.67;;;;;;;;;;5053485;28;20381;-79
2023/10/23 07:02:01;;;;;;;2.17;1.58;;;;;;;;;;5049363;28;20477;-79
2023/10/23 07:04:27;;;;;;;2.60;1.73;;;;;;;;;;5041636;28;20758;-80
2023/10/23 07:06:53;;;;;;;3.40;1.52;;;;;;;;;;5052862;28;20381;-80
2023/10/23 07:09:19;;;;;;;2.28;1.70;;;;;;;;;;5053307;28;20389;-80
2023/10/23 07:11:49;;;;;;;3.25;1.83;;;;;;;;;;5053508;28;20445;-80
2023/10/23 07:14:15;;;;;;;2.78;1.80;;;;;;;;;;5049520;28;20413;-79
2023/10/23 07:16:42;;;;;;;2.00;1.60;;;;;;;;;;5039171;28;20472;-79
2023/10/23 07:19:08;;;;;;;2.00;1.50;;;;;;;;;;5053792;28;20389;-79
2023/10/23 07:21:35;;;;;;;2.75;1.70;;;;;;;;;;5035192;28;20481;-79
2023/10/23 07:24:01;;;;;;;2.20;1.70;;;;;;;;;;5053811;28;20417;-79
2023/10/23 07:26:27;;;;;;;1.80;1.50;;;;;;;;;;5051953;28;20449;-79
2023/10/23 07:28:53;;;;;;;2.42;1.70;;;;;;;;;;5045154;28;21292;-79
2023/10/23 07:31:19;;;;;;;2.97;1.80;;;;;;;;;;5053943;28;20389;-79
2023/10/23 07:33:45;;;;;;;4.90;1.50;;;;;;;;;;5053466;28;20524;-79
2023/10/23 07:36:11;;;;;;;2.80;1.58;;;;;;;;;;5053637;28;20382;-80
2023/10/23 07:38:41;;;;;;;4.45;1.65;;;;;;;;;;5053342;28;20894;-80
2023/10/23 07:41:07;;;;;;;2.65;1.58;;;;;;;;;;5053193;28;20419;-79
2023/10/23 07:43:34;;;;;;;2.45;1.60;;;;;;;;;;5054550;28;20523;-81
2023/10/23 07:46:06;;;;;;;1.98;1.50;;;;;;;;;;5054305;28;20815;-81
2023/10/23 07:48:32;;;;;;;2.60;1.50;;;;;;;;;;5053635;28;20467;-81
2023/10/23 07:50:59;;;;;;;2.30;1.70;;;;;;;;;;5053310;28;20393;-81
2023/10/23 07:53:25;;;;;;;2.23;1.60;;;;;;;;;;5054060;28;20388;-81
2023/10/23 07:55:51;;;;;;;2.58;1.70;;;;;;;;;;5053992;28;20389;-81
2023/10/23 07:58:17;;;;;;;2.43;1.80;;;;;;;;;;5054146;28;20425;-80
2023/10/23 08:00:44;;;;;;;3.65;1.90;;;;;;;;;;5053972;28;20400;-81
2023/10/23 08:03:10;;;;;;;2.25;1.88;;;;;;;;;;5054043;28;20392;-81
2023/10/23 08:05:36;;;;;;;2.10;1.90;;;;;;;;;;5054088;28;20396;-80
2023/10/23 08:08:03;;;;;;;2.55;1.90;;;;;;;;;;5055061;28;20736;-81
2023/10/23 08:10:29;;;;;;;3.00;1.90;;;;;;;;;;5054426;28;20424;-81
2023/10/23 08:12:55;;;;;;;2.05;1.70;;;;;;;;;;5054717;28;20385;-81
2023/10/23 08:15:21;;;;;;;2.47;1.90;;;;;;;;;;5054681;28;20475;-80
2023/10/23 08:17:47;;;;;;;2.60;2.05;;;;;;;;;;5054398;28;20382;-81
2023/10/23 08:20:13;;;;;;;2.70;1.92;;;;;;;;;;5053869;28;20481;-81
2023/10/23 08:22:39;;;;;;;2.50;1.90;;;;;;;;;;5054307;28;20456;-81
2023/10/23 08:25:05;;;;;;;2.50;1.90;;;;;;;;;;5054987;28;20385;-81
2023/10/23 08:27:31;;;;;;;3.15;2.03;;;;;;;;;;5054407;28;20455;-80
2023/10/23 08:29:57;;;;;;;3.20;2.13;;;;;;;;;;5052922;28;20472;-79
2023/10/23 08:32:24;;;;;;;4.10;2.20;;;;;;;;;;5051841;28;20457;-80
2023/10/23 08:34:53;;;;;;;2.25;1.92;;;;;;;;;;5054730;28;20381;-79
2023/10/23 08:37:19;;;;;;;2.28;1.98;;;;;;;;;;5054628;28;20873;-79
2023/10/23 08:39:45;;;;;;;2.28;1.92;;;;;;;;;;5055613;28;20827;-79
2023/10/23 08:42:11;;;;;;;2.00;1.80;;;;;;;;;;5055505;28;20421;-79
2023/10/23 08:44:37;;;;;;;2.88;1.80;;;;;;;;;;5056574;28;20389;-79
2023/10/23 08:47:04;;;;;;;2.60;1.98;;;;;;;;;;5056232;28;20793;-80
2023/10/23 08:49:30;;;;;;;2.53;1.75;;;;;;;;;;5056098;28;20900;-79
2023/10/23 08:51:59;;;;;;;3.15;2.17;;;;;;;;;;5055805;28;20416;-79
2023/10/23 08:54:26;;;;;;;2.65;2.00;;;;;;;;;;5056823;28;20476;-79
2023/10/23 08:57:00;;;;;;;2.63;1.83;;;;;;;;;;5057006;28;20382;-79
2023/10/23 08:59:26;;;;;;;3.00;2.08;;;;;;;;;;5055749;28;20389;-79
2023/10/23 09:01:52;;;;;;;2.50;1.90;;;;;;;;;;5056414;28;20449;-79
2023/10/23 09:04:18;;;;;;;1.85;1.65;;;;;;;;;;5054936;28;20381;-79
2023/10/23 09:06:44;;;;;;;6.18;2.30;;;;;;;;;;5056056;28;20393;-80
2023/10/23 09:09:10;;;;;;;3.65;2.03;;;;;;;;;;5046989;28;20387;-79
2023/10/23 09:11:41;;;;;;;2.42;2.00;;;;;;;;;;5054892;28;20392;-79
2023/10/23 09:14:07;;;;;;;2.42;1.77;;;;;;;;;;5052100;28;20435;-80
2023/10/23 09:16:33;;;;;;;2.50;2.10;;;;;;;;;;5050986;28;20507;-79
2023/10/23 09:18:59;;;;;;;2.08;1.92;;;;;;;;;;5053745;28;20419;-80
2023/10/23 09:21:26;;;;;;;2.78;1.98;;;;;;;;;;5056317;28;21005;-80
2023/10/23 09:23:53;;;;;;;3.22;1.83;;;;;;;;;;5055195;28;20404;-79
2023/10/23 09:26:19;;;;;;;2.50;1.92;;;;;;;;;;5055387;28;20377;-79
2023/10/23 09:28:47;;;;;;;2.22;2.00;;;;;;;;;;5054712;28;20390;-80
2023/10/23 09:31:13;;;;;;;2.50;1.80;;;;;;;;;;5056430;28;20386;-80
2023/10/23 09:33:38;;;;;;;2.70;1.97;;;;;;;;;;5061350;28;20970;-79
2023/10/23 09:36:08;;;;;;;2.72;1.90;;;;;;;;;;5061757;28;20405;-79
2023/10/23 09:38:34;;;;;;;3.95;2.00;;;;;;;;;;5061321;28;20399;-79
2023/10/23 09:41:00;;;;;;;2.88;2.17;;;;;;;;;;5060556;28;20408;-79
2023/10/23 09:43:27;;;;;;;3.00;2.10;;;;;;;;;;5061512;28;20488;-79
2023/10/23 09:45:53;;;;;;;3.55;1.83;;;;;;;;;;5058900;28;20381;-80
2023/10/23 09:48:23;;;;;;;2.83;2.10;;;;;;;;;;5058059;28;20418;-80
2023/10/23 09:50:50;;;;;;;2.50;2.00;;;;;;;;;;5058950;28;20378;-80
2023/10/23 09:53:17;;;;;;;2.72;2.20;;;;;;;;;;5057375;28;20396;-80
2023/10/23 09:55:45;;;;;;;2.40;1.90;;;;;;;;;;5057544;28;20405;-80
2023/10/23 09:58:15;;;;;;;2.85;2.17;;;;;;;;;;5055377;28;20381;-79
2023/10/23 10:00:45;;;;;;;4.90;4.50;;;;;;;;;;5060671;28;20389;-80
2023/10/23 10:03:12;;;;;;;2.50;2.30;;;;;;;;;;5051475;28;20459;-79
2023/10/23 10:05:59;;;;;;;2.80;2.33;;;;;;;;;;5056749;28;20731;-79
2023/10/23 10:08:26;;;;;;;3.30;2.75;;;;;;;;;;5056949;28;20726;-80
2023/10/23 10:10:55;;;;;;;3.50;2.90;;;;;;;;;;5056431;28;20885;-79
2023/10/23 10:13:21;;;;;;;4.65;3.08;;;;;;;;;;5055356;28;20377;-79
2023/10/23 10:15:47;;;;;;;3.63;3.10;;;;;;;;;;5055134;28;20389;-79
2023/10/23 10:18:16;;;;;;;3.60;3.00;;;;;;;;;;5056554;28;20400;-79
2023/10/23 10:20:43;;;;;;;3.33;3.00;;;;;;;;;;5056413;28;20424;-79
2023/10/23 10:23:14;;;;;;;3.92;3.47;;;;;;;;;;5055148;28;20382;-79
2023/10/23 10:25:40;;;;;;;4.47;3.40;;;;;;;;;;5052795;28;20387;-79
2023/10/23 10:28:07;;;;;;;3.97;2.90;;;;;;;;;;5055009;28;20377;-79
2023/10/23 10:30:46;;;;;;;5.22;4.15;;;;;;;;;;5056367;28;21296;-79
2023/10/23 10:33:23;;;;;;;4.43;3.60;;;;;;;;;;5057732;28;20392;-80
2023/10/23 10:35:56;;;;;;;3.20;2.90;;;;;;;;;;5062158;28;20781;-79
2023/10/23 10:38:23;;;;;;;3.58;3.22;;;;;;;;;;5063466;28;20377;-80
2023/10/23 10:41:02;;;;;;;3.45;3.15;;;;;;;;;;5063010;28;20397;-80
2023/10/23 10:43:32;;;;;;;5.60;3.08;;;;;;;;;;5057913;28;20484;-80
2023/10/23 10:46:00;;;;;;;2.95;2.65;;;;;;;;;;5056203;28;20491;-81
2023/10/23 10:48:40;;;;;;;3.28;2.97;;;;;;;;;;5060518;28;20428;-81
2023/10/23 10:51:06;;;;;;;2.97;2.70;;;;;;;;;;5059795;28;20444;-81
2023/10/23 10:53:32;;;;;;;3.25;2.95;;;;;;;;;;5063050;28;20427;-81
2023/10/23 10:55:58;;;;;;;3.45;3.15;;;;;;;;;;5061507;28;20447;-81
2023/10/23 10:58:25;;;;;;;3.23;2.80;;;;;;;;;;5063303;28;20424;-81
2023/10/23 11:00:51;;;;;;;3.78;2.88;;;;;;;;;;5062787;28;20381;-80
2023/10/23 11:03:18;;;;;;;3.28;2.75;;;;;;;;;;5062590;28;20427;-81
2023/10/23 11:05:44;;;;;;;2.80;2.50;;;;;;;;;;5062578;28;20387;-81
2023/10/23 11:08:10;;;;;;;3.20;2.88;;;;;;;;;;5063244;28;20897;-81
2023/10/23 11:10:36;;;;;;;3.45;3.13;;;;;;;;;;5062988;28;20385;-81
2023/10/23 11:13:02;;;;;;;3.03;2.60;;;;;;;;;;5063131;28;20393;-81
2023/10/23 11:15:28;;;;;;;3.72;3.10;;;;;;;;;;5062818;28;20424;-81
2023/10/23 11:17:55;;;;;;;3.00;2.80;;;;;;;;;;5062652;28;20424;-81
2023/10/23 11:20:21;;;;;;;3.33;2.60;;;;;;;;;;5062560;28;20443;-81
2023/10/23 11:22:48;;;;;;;2.90;2.50;;;;;;;;;;5061808;28;20406;-81
2023/10/23 11:25:14;;;;;;;3.63;2.90;;;;;;;;;;5063689;28;20386;-81
2023/10/23 11:27:41;;;;;;;3.40;3.10;;;;;;;;;;5063161;28;20386;-81
2023/10/23 11:30:07;;;;;;;3.17;2.75;;;;;;;;;;5063549;28;20867;-81
2023/10/23 11:32:34;;;;;;;3.20;2.90;;;;;;;;;;5063564;28;20420;-81
2023/10/23 11:35:04;;;;;;;3.03;2.72;;;;;;;;;;5063787;28;20407;-81
2023/10/23 11:37:35;;;;;;;3.40;2.92;;;;;;;;;;5063673;28;20396;-81
2023/10/23 11:40:05;;;;;;;4.47;3.90;;;;;;;;;;5062734;28;20950;-81
2023/10/23 11:42:32;;;;;;;3.58;2.90;;;;;;;;;;5062138;28;20421;-81
2023/10/23 11:44:58;;;;;;;3.10;2.70;;;;;;;;;;5062965;28;20385;-81
2023/10/23 11:47:24;;;;;;;3.83;2.95;;;;;;;;;;5061983;28;20397;-81
2023/10/23 11:49:50;;;;;;;3.30;2.97;;;;;;;;;;5061489;28;20769;-81
2023/10/23 11:52:16;;;;;;;3.53;2.70;;;;;;;;;;5060627;28;20456;-81
2023/10/23 11:54:42;;;;;;;2.45;2.25;;;;;;;;;;5060361;28;20390;-81
2023/10/23 11:57:08;;;;;;;3.65;2.40;;;;;;;;;;5043056;28;20400;-81
2023/10/23 11:59:40;;;;;;;2.50;2.20;;;;;;;;;;5061872;28;20850;-81
2023/10/23 12:02:06;;;;;;;2.50;2.28;;;;;;;;;;5060920;28;20417;-81
2023/10/23 12:04:35;;;;;;;2.53;2.03;;;;;;;;;;5058982;28;20400;-81
2023/10/23 12:07:04;;;;;;;2.75;1.88;;;;;;;;;;5062044;28;20476;-81
2023/10/23 12:09:30;;;;;;;2.80;2.05;;;;;;;;;;5062520;28;20393;-81
2023/10/23 12:11:56;;;;;;;3.28;2.10;;;;;;;;;;5061164;28;20386;-81
2023/10/23 12:14:22;;;;;;;3.17;2.40;;;;;;;;;;5062032;28;20393;-81
2023/10/23 12:16:48;;;;;;;2.17;1.98;;;;;;;;;;5060052;28;20396;-81
2023/10/23 12:19:15;;;;;;;3.75;2.45;;;;;;;;;;5062559;28;20390;-81
2023/10/23 12:21:41;;;;;;;3.20;2.10;;;;;;;;;;5062015;28;20405;-81
2023/10/23 12:24:07;;;;;;;2.60;2.25;;;;;;;;;;5062621;28;20768;-81
2023/10/23 12:26:34;;;;;;;2.83;2.10;;;;;;;;;;5062794;28;20965;-81
2023/10/23 12:29:00;;;;;;;2.50;2.03;;;;;;;;;;5063175;28;20390;-81
2023/10/23 12:31:26;;;;;;;2.60;2.15;;;;;;;;;;5063831;28;20385;-81
2023/10/23 12:33:52;;;;;;;4.03;2.92;;;;;;;;;;5063423;28;20386;-81
2023/10/23 12:36:19;;;;;;;3.60;2.65;;;;;;;;;;5063195;28;20419;-81
2023/10/23 12:38:45;;;;;;;3.20;2.30;;;;;;;;;;5062369;28;20393;-81
2023/10/23 12:41:11;;;;;;;2.38;2.17;;;;;;;;;;5063431;28;20415;-81
2023/10/23 12:43:37;;;;;;;2.90;2.00;;;;;;;;;;5062664;28;20389;-82
2023/10/23 12:46:03;;;;;;;3.33;2.30;;;;;;;;;;5063594;28;20381;-81
2023/10/23 12:48:29;;;;;;;2.47;2.05;;;;;;;;;;5062882;28;20466;-81
2023/10/23 12:50:55;;;;;;;1.95;1.83;;;;;;;;;;5062701;28;20416;-81
2023/10/23 12:53:21;;;;;;;3.53;2.17;;;;;;;;;;5063067;28;20378;-81
2023/10/23 12:55:47;;;;;;;2.35;2.00;;;;;;;;;;5062723;28;21104;-81
2023/10/23 12:58:13;;;;;;;2.75;2.25;;;;;;;;;;5062712;28;20385;-81
2023/10/23 13:00:39;;;;;;;2.60;2.13;;;;;;;;;;5062224;28;20389;-81
2023/10/23 13:03:05;;;;;;;2.90;1.50;;;;;;;;;;5061913;28;20517;-81
2023/10/23 13:05:32;;;;;;;2.20;1.63;;;;;;;;;;5064958;28;20397;-81
2023/10/23 13:07:58;;;;;;;2.45;1.83;;;;;;;;;;5067005;28;20447;-81
2023/10/23 13:10:24;;;;;;;1.90;1.60;;;;;;;;;;5066740;28;20389;-81
2023/10/23 13:12:50;;;;;;;3.87;1.80;;;;;;;;;;5063823;28;20416;-81
2023/10/23 13:15:17;;;;;;;2.60;1.90;;;;;;;;;;5061474;28;20463;-81
2023/10/23 13:17:43;;;;;;;2.33;1.60;;;;;;;;;;5061065;28;20381;-81
2023/10/23 13:20:10;;;;;;;2.92;1.77;;;;;;;;;;5060366;28;20476;-81
2023/10/23 13:22:36;;;;;;;3.22;1.90;;;;;;;;;;5060180;28;20409;-81
2023/10/23 13:25:05;;;;;;;2.45;1.73;;;;;;;;;;5041335;28;20468;-81
2023/10/23 13:27:31;;;;;;;2.53;2.00;;;;;;;;;;5059450;28;20385;-81
2023/10/23 13:29:57;;;;;;;2.08;1.70;;;;;;;;;;5062196;28;20416;-81
2023/10/23 13:32:23;;;;;;;3.13;1.67;;;;;;;;;;5063001;28;20422;-81
2023/10/23 13:34:49;;;;;;;2.60;1.50;;;;;;;;;;5063322;28;20391;-81
2023/10/23 13:37:15;;;;;;;2.83;1.80;;;;;;;;;;5063097;28;20535;-81
2023/10/23 13:39:41;;;;;;;1.83;1.40;;;;;;;;;;5064010;28;20392;-81
2023/10/23 13:42:07;;;;;;;2.23;1.70;;;;;;;;;;5064345;28;20409;-81
2023/10/23 13:44:33;;;;;;;2.72;1.88;;;;;;;;;;5064979;28;20842;-81
2023/10/23 13:46:59;;;;;;;2.10;1.80;;;;;;;;;;5065422;28;20388;-81
2023/10/23 13:49:25;;;;;;;2.97;1.85;;;;;;;;;;5065566;28;20385;-81
2023/10/23 13:51:51;;;;;;;2.80;1.90;;;;;;;;;;5044819;28;20508;-81
2023/10/23 13:54:17;;;;;;;1.90;1.67;;;;;;;;;;5062242;28;20389;-81
2023/10/23 13:56:45;;;;;;;3.05;2.15;;;;;;;;;;5061648;28;20377;-81
2023/10/23 13:59:11;;;;;;;2.53;1.90;;;;;;;;;;5062475;28;20423;-81
2023/10/23 14:01:37;;;;;;;2.63;1.90;;;;;;;;;;5061784;28;20416;-81
2023/10/23 14:04:03;;;;;;;3.10;1.80;;;;;;;;;;5059425;28;20484;-80
2023/10/23 14:06:29;;;;;;;32.75;19.08;;;;;;;;;;5062987;28;20742;-80
2023/10/23 14:08:55;;;;;;;4.78;3.20;;;;;;;;;;5064255;28;20391;-80
2023/10/23 14:11:22;;;;;;;4.00;2.03;;;;;;;;;;5064150;28;20382;-82
2023/10/23 14:13:48;;;;;;;3.63;2.30;;;;;;;;;;5064127;28;20377;-80
2023/10/23 14:16:14;;;;;;;2.92;2.17;;;;;;;;;;5062181;28;20453;-80
2023/10/23 14:18:40;;;;;;;5.68;4.40;;;;;;;;;;5048362;28;20382;-80
2023/10/23 14:21:06;;;;;;;3.63;3.05;;;;;;;;;;5067756;28;20424;-81
2023/10/23 14:23:32;;;;;;;2.88;2.45;;;;;;;;;;5068787;28;20396;-80
2023/10/23 14:25:58;;;;;;;3.33;2.37;;;;;;;;;;5068658;28;20393;-80
2023/10/23 14:28:24;;;;;;;6.85;5.15;;;;;;;;;;5067890;28;20386;-80
2023/10/23 14:30:51;;;;;;;5.75;4.90;;;;;;;;;;5068874;28;20381;-82
2023/10/23 14:33:17;;;;;;;4.38;3.00;;;;;;;;;;5067874;28;20390;-80
2023/10/23 14:35:43;;;;;;;5.20;3.03;;;;;;;;;;5068400;28;20377;-81
2023/10/23 14:38:11;;;;;;;2.60;2.22;;;;;;;;;;5068312;28;20762;-81
2023/10/23 14:40:37;;;;;;;6.75;3.42;;;;;;;;;;5066962;28;20862;-81